createdAt,value
2019-05-13T05:32:57.466Z,1033.4
2019-05-13T05:34:10.578Z,1033.7
2019-05-13T05:35:41.005Z,1033.8
2019-05-13T05:37:11.567Z,1033.7
2019-05-13T05:38:42.017Z,1033.7
2019-05-13T05:40:12.628Z,1033.8
2019-05-13T05:41:43.055Z,1033.8
2019-05-13T05:43:13.556Z,1033.8
2019-05-13T05:44:44.091Z,1033.8
2019-05-13T05:46:14.691Z,1033.8
2019-05-13T05:47:45.089Z,1033.8
2019-05-13T05:48:58.144Z,1033.9
2019-05-13T05:50:11.182Z,1033.9
2019-05-13T05:51:41.749Z,1033.8
2019-05-13T05:53:12.176Z,1033.9
2019-05-13T05:54:42.715Z,1033.9
2019-05-13T05:56:13.325Z,1033.9
2019-05-13T05:57:43.738Z,1033.9
2019-05-13T05:59:14.552Z,1033.9
2019-05-13T06:00:44.879Z,1033.9
2019-05-13T06:02:15.304Z,1033.9
2019-05-13T06:03:45.779Z,1033.9
2019-05-13T06:06:11.869Z,1033.9
2019-05-13T06:07:42.358Z,1033.9
2019-05-13T06:09:12.857Z,1033.9
2019-05-13T06:10:43.659Z,1033.9
2019-05-13T06:12:14.185Z,1033.9
2019-05-13T06:13:44.433Z,1033.9
2019-05-13T06:15:15.066Z,1033.8
2019-05-13T06:16:45.475Z,1033.8
2019-05-13T06:18:15.934Z,1033.8
2019-05-13T06:19:46.445Z,1033.9
2019-05-13T06:20:59.501Z,1033.8
2019-05-13T06:22:12.598Z,1033.9
2019-05-13T06:23:43.095Z,1033.8
2019-05-13T06:25:13.677Z,1033.8
2019-05-13T06:26:44.114Z,1033.8
2019-05-13T06:28:14.620Z,1033.8
2019-05-13T06:29:45.217Z,1033.9
2019-05-13T06:31:15.621Z,1033.8
2019-05-13T06:32:51.182Z,1033.8
2019-05-13T06:34:16.641Z,1033.8
2019-05-13T06:35:47.113Z,1033.8
2019-05-13T06:37:00.237Z,1033.8
2019-05-13T06:38:13.285Z,1033.8
2019-05-13T06:39:43.840Z,1033.8
2019-05-13T06:41:14.418Z,1033.8
2019-05-13T06:42:44.737Z,1033.8
2019-05-13T06:45:45.787Z,1033.8
2019-05-13T06:47:16.257Z,1033.8
2019-05-13T06:48:46.882Z,1033.9
2019-05-13T06:50:17.300Z,1033.8
2019-05-13T06:51:47.826Z,1033.8
2019-05-13T06:53:00.814Z,1033.8
2019-05-13T06:54:14.011Z,1033.8
2019-05-13T06:55:44.376Z,1033.8
2019-05-13T06:57:14.875Z,1033.8
2019-05-13T06:58:45.421Z,1033.9
2019-05-13T07:00:15.937Z,1033.8
2019-05-13T07:01:46.446Z,1033.8
2019-05-13T07:03:16.925Z,1033.8
2019-05-13T07:04:47.484Z,1033.9
2019-05-13T07:06:18.025Z,1033.9
2019-05-13T07:07:48.506Z,1033.9
2019-05-13T07:09:01.615Z,1033.9
2019-05-13T07:10:16.743Z,1033.8
2019-05-13T07:11:45.043Z,1033.9
2019-05-13T07:13:15.575Z,1033.9
2019-05-13T07:14:46.134Z,1033.8
2019-05-13T07:16:16.681Z,1033.9
2019-05-13T07:17:47.215Z,1033.9
2019-05-13T07:19:17.841Z,1033.9
2019-05-13T07:20:48.114Z,1033.9
2019-05-13T07:22:18.642Z,1033.9
2019-05-13T07:23:49.144Z,1033.9
2019-05-13T07:26:15.190Z,1034
2019-05-13T07:27:45.795Z,1034
2019-05-13T07:29:16.264Z,1034
2019-05-13T07:30:46.769Z,1034
2019-05-13T07:32:17.370Z,1034
2019-05-13T07:35:18.321Z,1033.9
2019-05-13T07:36:49.138Z,1034
2019-05-13T07:38:19.313Z,1033.9
2019-05-13T07:39:51.212Z,1033.9
2019-05-13T07:41:02.888Z,1033.9
2019-05-13T07:42:15.876Z,1033.9
2019-05-13T07:43:46.394Z,1033.9
2019-05-13T07:45:16.957Z,1033.9
2019-05-13T07:46:47.548Z,1033.9
2019-05-13T07:48:17.981Z,1033.9
2019-05-13T07:49:48.541Z,1034
2019-05-13T07:51:19.139Z,1033.9
2019-05-13T07:52:49.484Z,1034
2019-05-13T07:54:20.069Z,1034
2019-05-13T07:55:50.503Z,1034.1
2019-05-13T07:57:06.376Z,1034.1
2019-05-13T07:58:19.679Z,1034.1
2019-05-13T07:59:47.082Z,1034.1
2019-05-13T08:01:17.711Z,1034.1
2019-05-13T08:02:48.175Z,1034.1
2019-05-13T08:04:18.759Z,1034.2
2019-05-13T08:05:49.159Z,1034.1
2019-05-13T08:07:19.642Z,1034.1
2019-05-13T08:08:50.125Z,1034.1
2019-05-13T08:10:20.740Z,1034.1
2019-05-13T08:11:51.170Z,1034.2
2019-05-13T08:13:04.176Z,1034.2
2019-05-13T08:14:17.268Z,1034.2
2019-05-13T08:15:47.825Z,1034.2
2019-05-13T08:17:18.251Z,1034.2
2019-05-13T08:18:48.805Z,1034.2
2019-05-13T08:20:19.352Z,1034.1
2019-05-13T08:21:49.844Z,1034.1
2019-05-13T08:23:20.315Z,1034.2
2019-05-13T08:24:50.856Z,1034.2
2019-05-13T08:26:21.329Z,1034.1
2019-05-13T08:27:51.838Z,1034.2
2019-05-13T08:29:05.113Z,1034.1
2019-05-13T08:30:21.372Z,1034.1
2019-05-13T08:31:48.426Z,1034.1
2019-05-13T08:33:18.903Z,1034.2
2019-05-13T08:34:49.464Z,1034.2
2019-05-13T08:36:19.970Z,1034.2
2019-05-13T08:37:50.491Z,1034.1
2019-05-13T08:39:20.973Z,1034.1
2019-05-13T08:40:51.599Z,1034.1
2019-05-13T08:42:22.017Z,1034.1
2019-05-13T08:43:52.581Z,1034.1
2019-05-13T08:46:18.594Z,1034.1
2019-05-13T08:47:49.087Z,1034.1
2019-05-13T08:49:19.624Z,1034
2019-05-13T08:50:50.235Z,1034.1
2019-05-13T08:52:20.717Z,1034.1
2019-05-13T08:53:51.132Z,1034.1
2019-05-13T08:55:21.748Z,1034.1
2019-05-13T08:56:52.307Z,1034.1
2019-05-13T08:58:22.736Z,1034.1
2019-05-13T08:59:53.501Z,1034.1
2019-05-13T09:01:06.241Z,1034.1
2019-05-13T09:02:19.267Z,1034.1
2019-05-13T09:03:49.772Z,1034.1
2019-05-13T09:05:20.296Z,1034.1
2019-05-13T09:06:50.833Z,1034.1
2019-05-13T09:08:21.302Z,1034.1
2019-05-13T09:09:52.289Z,1034.1
2019-05-13T09:11:22.332Z,1034.1
2019-05-13T09:12:52.900Z,1034.1
2019-05-13T09:14:23.348Z,1034.1
2019-05-13T09:15:53.926Z,1034.1
2019-05-13T09:17:07.377Z,1034.1
2019-05-13T09:18:19.950Z,1034.1
2019-05-13T09:19:50.472Z,1034.2
2019-05-13T09:21:21.033Z,1034.1
2019-05-13T09:22:51.917Z,1034.1
2019-05-13T09:24:22.212Z,1034.2
2019-05-13T09:25:52.672Z,1034.1
2019-05-13T09:27:25.397Z,1034.1
2019-05-13T09:28:53.699Z,1034.1
2019-05-13T09:30:24.064Z,1034.1
2019-05-13T09:31:54.739Z,1034.1
2019-05-13T09:33:07.679Z,1034.1
2019-05-13T09:34:20.720Z,1034.1
2019-05-13T09:35:51.463Z,1034.1
2019-05-13T09:37:21.897Z,1034.1
2019-05-13T09:38:52.198Z,1034
2019-05-13T09:40:23.005Z,1034.1
2019-05-13T09:43:23.696Z,1034
2019-05-13T09:44:54.257Z,1034
2019-05-13T09:46:24.920Z,1034
2019-05-13T09:47:55.269Z,1034
2019-05-13T09:49:08.543Z,1034
2019-05-13T09:50:22.915Z,1034
2019-05-13T09:51:51.960Z,1034
2019-05-13T09:53:22.453Z,1034
2019-05-13T09:54:52.861Z,1034.1
2019-05-13T09:56:23.469Z,1034.1
2019-05-13T09:57:53.937Z,1034.1
2019-05-13T09:59:24.466Z,1034.1
2019-05-13T10:00:55.225Z,1034.1
2019-05-13T10:02:25.456Z,1034
2019-05-13T10:03:56.134Z,1034.1
2019-05-13T10:06:21.992Z,1034
2019-05-13T10:07:52.507Z,1034
2019-05-13T10:09:23.107Z,1034
2019-05-13T10:10:53.604Z,1034
2019-05-13T10:12:24.047Z,1033.9
2019-05-13T10:13:54.658Z,1034
2019-05-13T10:15:25.554Z,1034
2019-05-13T10:16:55.963Z,1034
2019-05-13T10:18:26.633Z,1033.9
2019-05-13T10:19:56.623Z,1034
2019-05-13T10:21:11.074Z,1034
2019-05-13T10:22:22.704Z,1033.9
2019-05-13T10:23:53.169Z,1033.9
2019-05-13T10:25:23.733Z,1033.9
2019-05-13T10:26:54.277Z,1033.9
2019-05-13T10:28:24.753Z,1033.9
2019-05-13T10:29:55.235Z,1033.9
2019-05-13T10:31:25.772Z,1033.9
2019-05-13T10:32:56.260Z,1033.9
2019-05-13T10:34:26.751Z,1033.8
2019-05-13T10:35:57.373Z,1033.8
2019-05-13T10:37:10.377Z,1033.8
2019-05-13T10:38:23.364Z,1033.9
2019-05-13T10:39:54.559Z,1033.8
2019-05-13T10:41:24.375Z,1033.8
2019-05-13T10:42:54.904Z,1033.7
2019-05-13T10:44:25.485Z,1033.8
2019-05-13T10:45:55.971Z,1033.7
2019-05-13T10:47:26.466Z,1033.8
2019-05-13T10:48:56.989Z,1033.7
2019-05-13T10:50:27.442Z,1033.8
2019-05-13T10:51:58.043Z,1033.7
2019-05-13T10:53:11.005Z,1033.7
2019-05-13T10:54:24.111Z,1033.6
2019-05-13T10:55:54.596Z,1033.6
2019-05-13T10:57:25.146Z,1033.6
2019-05-13T10:58:55.613Z,1033.6
2019-05-13T11:00:26.090Z,1033.6
2019-05-13T11:01:56.577Z,1033.5
2019-05-13T11:03:27.185Z,1033.5
2019-05-13T11:04:57.617Z,1033.4
2019-05-13T11:06:28.224Z,1033.4
2019-05-13T11:07:58.727Z,1033.4
2019-05-13T11:09:11.705Z,1033.5
2019-05-13T11:10:24.772Z,1033.5
2019-05-13T11:11:55.486Z,1033.4
2019-05-13T11:13:26.020Z,1033.4
2019-05-13T11:14:56.276Z,1033.4
2019-05-13T11:16:26.800Z,1033.4
2019-05-13T11:17:57.495Z,1033.4
2019-05-13T11:19:27.786Z,1033.4
2019-05-13T11:20:58.319Z,1033.3
2019-05-13T11:22:28.863Z,1033.3
2019-05-13T11:24:02.110Z,1033.4
2019-05-13T11:26:25.381Z,1033.5
2019-05-13T11:27:55.942Z,1033.4
2019-05-13T11:29:26.416Z,1033.4
2019-05-13T11:30:56.939Z,1033.4
2019-05-13T11:32:27.606Z,1033.4
2019-05-13T11:33:58.081Z,1033.4
2019-05-13T11:35:28.459Z,1033.4
2019-05-13T11:36:58.995Z,1033.4
2019-05-13T11:38:29.537Z,1033.3
2019-05-13T11:40:01.193Z,1033.3
2019-05-13T11:41:13.211Z,1033.3
2019-05-13T11:42:26.117Z,1033.2
2019-05-13T11:43:56.776Z,1033.2
2019-05-13T11:45:27.328Z,1033.3
2019-05-13T11:46:58.084Z,1033.3
2019-05-13T11:48:28.338Z,1033.3
2019-05-13T11:49:58.619Z,1033.3
2019-05-13T11:51:29.541Z,1033.2
2019-05-13T11:52:59.712Z,1033.3
2019-05-13T11:54:30.349Z,1033.2
2019-05-13T11:56:00.674Z,1033.2
2019-05-13T11:57:13.769Z,1033.2
2019-05-13T11:58:26.779Z,1033.2
2019-05-13T11:59:57.349Z,1033.1
2019-05-13T12:01:27.822Z,1033.1
2019-05-13T12:02:58.278Z,1033.1
2019-05-13T12:04:28.820Z,1033.1
2019-05-13T12:05:59.356Z,1033
2019-05-13T12:07:29.841Z,1033
2019-05-13T12:09:00.381Z,1033
2019-05-13T12:10:35.702Z,1032.9
2019-05-13T12:12:01.552Z,1033
2019-05-13T12:13:14.410Z,1032.9
2019-05-13T12:14:27.708Z,1032.9
2019-05-13T12:15:58.005Z,1032.8
2019-05-13T12:17:28.515Z,1032.8
2019-05-13T12:18:59.068Z,1032.8
2019-05-13T12:20:30.049Z,1032.8
2019-05-13T12:22:00.025Z,1032.8
2019-05-13T12:23:30.933Z,1032.8
2019-05-13T12:25:01.034Z,1032.8
2019-05-13T12:26:31.717Z,1032.8
2019-05-13T12:28:02.216Z,1032.8
2019-05-13T12:29:15.164Z,1032.8
2019-05-13T12:30:28.243Z,1032.8
2019-05-13T12:31:58.749Z,1032.8
2019-05-13T12:33:33.644Z,1032.7
2019-05-13T12:34:59.645Z,1032.7
2019-05-13T12:36:30.192Z,1032.7
2019-05-13T12:38:00.667Z,1032.7
2019-05-13T12:39:31.235Z,1032.7
2019-05-13T12:41:01.804Z,1032.6
2019-05-13T12:42:32.303Z,1032.7
2019-05-13T12:44:02.791Z,1032.7
2019-05-13T12:45:15.879Z,1032.7
2019-05-13T12:46:28.783Z,1032.6
2019-05-13T12:47:59.480Z,1032.6
2019-05-13T12:49:29.814Z,1032.6
2019-05-13T12:51:00.342Z,1032.5
2019-05-13T12:52:30.916Z,1032.6
2019-05-13T12:54:01.364Z,1032.5
2019-05-13T12:55:31.893Z,1032.6
2019-05-13T12:57:02.404Z,1032.6
2019-05-13T12:58:32.996Z,1032.6
2019-05-13T13:00:03.408Z,1032.6
2019-05-13T13:01:16.805Z,1032.5
2019-05-13T13:02:29.570Z,1032.6
2019-05-13T13:03:59.974Z,1032.5
2019-05-13T13:05:30.533Z,1032.6
2019-05-13T13:07:01.109Z,1032.6
2019-05-13T13:08:31.556Z,1032.5
2019-05-13T13:10:08.389Z,1032.5
2019-05-13T13:11:33.346Z,1032.4
2019-05-13T13:13:03.146Z,1032.4
2019-05-13T13:14:33.880Z,1032.4
2019-05-13T13:16:04.185Z,1032.4
2019-05-13T13:17:17.183Z,1032.4
2019-05-13T13:18:30.161Z,1032.3
2019-05-13T13:20:00.697Z,1032.3
2019-05-13T13:21:36.561Z,1032.2
2019-05-13T13:23:06.394Z,1032.2
2019-05-13T13:24:35.724Z,1032.2
2019-05-13T13:26:02.736Z,1032.3
2019-05-13T13:27:33.365Z,1032.4
2019-05-13T13:29:03.748Z,1032.3
2019-05-13T13:30:34.404Z,1032.2
2019-05-13T13:32:04.867Z,1032.2
2019-05-13T13:33:17.791Z,1032.2
2019-05-13T13:34:30.846Z,1032.2
2019-05-13T13:36:01.400Z,1032.2
2019-05-13T13:37:31.917Z,1032.2
2019-05-13T13:39:02.401Z,1032.1
2019-05-13T13:40:34.746Z,1032
2019-05-13T13:42:03.397Z,1032
2019-05-13T13:43:33.972Z,1032
2019-05-13T13:45:04.416Z,1031.9
2019-05-13T13:46:34.930Z,1031.9
2019-05-13T13:48:05.497Z,1031.9
2019-05-13T13:49:18.787Z,1031.9
2019-05-13T13:50:31.509Z,1031.9
2019-05-13T13:52:02.116Z,1031.9
2019-05-13T13:53:32.611Z,1031.9
2019-05-13T13:55:03.035Z,1031.8
2019-05-13T13:56:33.663Z,1031.8
2019-05-13T13:58:04.636Z,1031.8
2019-05-13T13:59:36.176Z,1031.9
2019-05-13T14:01:05.214Z,1031.8
2019-05-13T14:02:35.809Z,1031.8
2019-05-13T14:04:06.128Z,1031.8
2019-05-13T14:06:32.212Z,1031.8
2019-05-13T14:08:02.691Z,1031.8
2019-05-13T14:09:33.182Z,1031.8
2019-05-13T14:11:03.710Z,1031.7
2019-05-13T14:12:34.256Z,1031.6
2019-05-13T14:14:04.750Z,1031.6
2019-05-13T14:15:35.285Z,1031.6
2019-05-13T14:17:05.815Z,1031.7
2019-05-13T14:18:37.913Z,1031.6
2019-05-13T14:20:06.841Z,1031.6
2019-05-13T14:21:19.820Z,1031.5
2019-05-13T14:22:32.944Z,1031.5
2019-05-13T14:24:06.675Z,1031.5
2019-05-13T14:25:33.892Z,1031.5
2019-05-13T14:27:04.374Z,1031.5
2019-05-13T14:28:34.987Z,1031.5
2019-05-13T14:30:07.616Z,1031.5
2019-05-13T14:31:37.201Z,1031.4
2019-05-13T14:33:06.600Z,1031.4
2019-05-13T14:34:37.003Z,1031.4
2019-05-13T14:36:07.567Z,1031.4
2019-05-13T14:37:21.527Z,1031.4
2019-05-13T14:38:36.199Z,1031.3
2019-05-13T14:40:05.431Z,1031.4
2019-05-13T14:41:34.533Z,1031.3
2019-05-13T14:43:05.140Z,1031.4
2019-05-13T14:44:35.659Z,1031.4
2019-05-13T14:46:06.092Z,1031.3
2019-05-13T14:47:42.450Z,1031.3
2019-05-13T14:49:07.424Z,1031.3
2019-05-13T14:50:37.768Z,1031.2
2019-05-13T14:52:08.632Z,1031.3
2019-05-13T14:53:21.351Z,1031.2
2019-05-13T14:54:34.208Z,1031.2
2019-05-13T14:56:04.722Z,1031.3
2019-05-13T14:57:35.478Z,1031.2
2019-05-13T14:59:05.763Z,1031.2
2019-05-13T15:00:36.333Z,1031.1
2019-05-13T15:02:10.505Z,1031.2
2019-05-13T15:03:37.307Z,1031.1
2019-05-13T15:05:07.952Z,1031.2
2019-05-13T15:06:38.336Z,1031.2
2019-05-13T15:08:13.414Z,1031.2
2019-05-13T15:09:22.036Z,1031.2
2019-05-13T15:10:35.269Z,1031.2
2019-05-13T15:12:05.367Z,1031.2
2019-05-13T15:13:35.969Z,1031.1
2019-05-13T15:15:06.598Z,1031.1
2019-05-13T15:16:40.925Z,1031.1
2019-05-13T15:18:07.410Z,1031.1
2019-05-13T15:19:37.987Z,1031.1
2019-05-13T15:21:08.503Z,1031.1
2019-05-13T15:22:39.322Z,1031.1
2019-05-13T15:24:09.504Z,1031.1
2019-05-13T15:26:35.612Z,1031.1
2019-05-13T15:28:06.063Z,1031.1
2019-05-13T15:29:36.714Z,1031.1
2019-05-13T15:31:07.354Z,1031.1
2019-05-13T15:32:37.580Z,1031
